Time;durP1;ratioP1;P1;durP2;ratioP2;P2;SDS_P1;SDS_P2;PMS_P1;PMS_P2;Temp;Humidity;BMP_temperature;BMP_pressure;BME280_temperature;BME280_humidity;BME280_pressure;Samples;Min_cycle;Max_cycle;Signal;HPM_P1;HPM_P2
2021/01/30 00:01:55;;;;;;;;;;;23.90;42.00;;;;;;1552775;75;678;-59
2021/01/30 00:03:56;;;;;;;;;;;23.90;42.00;;;;;;1556764;75;1053;-59
2021/01/30 00:05:58;;;;;;;;;;;23.90;42.10;;;;;;1564931;74;695;-59
2021/01/30 00:08:00;;;;;;;;;;;23.90;42.00;;;;;;1568613;76;1193;-59
2021/01/30 00:10:02;;;;;;;;;;;23.90;42.00;;;;;;1566525;74;772;-58
2021/01/30 00:12:04;;;;;;;;;;;23.90;42.00;;;;;;1566752;75;665;-58
2021/01/30 00:14:06;;;;;;;;;;;23.90;42.10;;;;;;1549957;75;724;-58
2021/01/30 00:16:08;;;;;;;;;;;23.90;42.10;;;;;;1567932;74;703;-58
2021/01/30 00:18:10;;;;;;;;;;;23.90;42.10;;;;;;1568430;74;1930;-59
2021/01/30 00:20:12;;;;;;;;;;;23.90;42.10;;;;;;1568398;75;726;-60
2021/01/30 00:22:15;;;;;;;;;;;23.90;42.10;;;;;;1567916;75;741;-60
2021/01/30 00:24:17;;;;;;;;;;;23.90;42.10;;;;;;1568093;74;784;-58
2021/01/30 00:26:19;;;;;;;;;;;23.90;42.10;;;;;;1572309;74;648;-60
2021/01/30 00:28:21;;;;;;;;;;;23.90;42.10;;;;;;1568521;74;1155;-59
2021/01/30 00:30:24;;;;;;;;;;;23.90;42.10;;;;;;1565056;74;743;-60
2021/01/30 00:32:25;;;;;;;;;;;23.90;42.20;;;;;;1570531;74;737;-61
2021/01/30 00:34:28;;;;;;;;;;;23.90;42.20;;;;;;1564429;74;682;-60
2021/01/30 00:36:30;;;;;;;;;;;23.90;42.20;;;;;;1568447;74;752;-59
2021/01/30 00:38:31;;;;;;;;;;;23.90;42.20;;;;;;1568790;74;1950;-59
2021/01/30 00:40:33;;;;;;;;;;;23.90;42.10;;;;;;1568403;74;740;-60
2021/01/30 00:42:35;;;;;;;;;;;23.90;42.10;;;;;;1567748;74;965;-60
2021/01/30 00:44:37;;;;;;;;;;;23.90;42.10;;;;;;1568528;74;702;-59
2021/01/30 00:46:39;;;;;;;;;;;23.90;42.20;;;;;;1568313;74;744;-58
2021/01/30 00:48:41;;;;;;;;;;;23.90;42.20;;;;;;1568848;74;1142;-58
2021/01/30 00:50:43;;;;;;;;;;;23.90;42.20;;;;;;1567194;74;740;-58
2021/01/30 00:52:45;;;;;;;;;;;23.90;42.20;;;;;;1565948;75;760;-60
2021/01/30 00:54:47;;;;;;;;;;;23.90;42.20;;;;;;1568264;74;701;-60
2021/01/30 00:56:49;;;;;;;;;;;23.90;42.30;;;;;;1568447;74;746;-60
2021/01/30 00:58:51;;;;;;;;;;;24.00;42.20;;;;;;1561307;74;1947;-58
2021/01/30 01:00:53;;;;;;;;;;;23.80;42.20;;;;;;1566456;75;714;-58
2021/01/30 01:02:55;;;;;;;;;;;23.90;42.30;;;;;;1568287;74;719;-58
2021/01/30 01:04:57;;;;;;;;;;;23.90;42.30;;;;;;1573077;74;974;-60
2021/01/30 01:06:59;;;;;;;;;;;23.90;42.30;;;;;;1568163;74;728;-59
2021/01/30 01:09:01;;;;;;;;;;;23.90;42.30;;;;;;1565280;74;1189;-60
2021/01/30 01:11:03;;;;;;;;;;;23.80;42.20;;;;;;1565901;74;795;-59
2021/01/30 01:13:05;;;;;;;;;;;23.90;42.30;;;;;;1567293;74;770;-61
2021/01/30 01:15:07;;;;;;;;;;;23.80;42.20;;;;;;1569740;74;677;-59
2021/01/30 01:17:09;;;;;;;;;;;23.90;42.50;;;;;;1568264;74;785;-59
2021/01/30 01:19:11;;;;;;;;;;;23.80;42.30;;;;;;1565206;74;1924;-59
2021/01/30 01:21:13;;;;;;;;;;;23.80;42.30;;;;;;1568069;74;711;-59
2021/01/30 01:23:15;;;;;;;;;;;23.80;42.30;;;;;;1568474;74;711;-59
2021/01/30 01:25:18;;;;;;;;;;;23.80;42.30;;;;;;1569164;74;687;-59
2021/01/30 01:27:19;;;;;;;;;;;23.90;42.40;;;;;;1568360;74;1103;-60
2021/01/30 01:29:22;;;;;;;;;;;23.80;42.30;;;;;;1564044;74;712;-59
2021/01/30 01:31:23;;;;;;;;;;;23.80;42.40;;;;;;1569320;74;797;-57
2021/01/30 01:33:25;;;;;;;;;;;23.90;42.40;;;;;;1568174;74;712;-59
2021/01/30 01:35:28;;;;;;;;;;;23.90;42.40;;;;;;1569220;74;686;-58
2021/01/30 01:37:30;;;;;;;;;;;23.90;42.40;;;;;;1564402;74;1179;-59
2021/01/30 01:39:33;;;;;;;;;;;23.90;42.40;;;;;;1569093;74;1956;-58
2021/01/30 01:41:35;;;;;;;;;;;23.90;42.40;;;;;;1568329;74;731;-59
2021/01/30 01:43:37;;;;;;;;;;;23.90;42.50;;;;;;1568371;74;655;-59
2021/01/30 01:45:39;;;;;;;;;;;23.80;42.50;;;;;;1569965;74;765;-59
2021/01/30 01:47:43;;;;;;;;;;;23.80;42.70;;;;;;1565629;74;1150;-58
2021/01/30 01:49:45;;;;;;;;;;;23.80;42.50;;;;;;1567692;74;769;-59
2021/01/30 01:51:48;;;;;;;;;;;23.90;42.60;;;;;;1568257;75;726;-59
2021/01/30 01:53:50;;;;;;;;;;;23.90;42.60;;;;;;1568435;74;702;-58
2021/01/30 01:55:53;;;;;;;;;;;23.80;42.50;;;;;;1567407;74;709;-60
2021/01/30 01:57:56;;;;;;;;;;;23.90;42.60;;;;;;1565803;74;1946;-58
2021/01/30 01:59:57;;;;;;;;;;;23.90;42.50;;;;;;1569868;74;706;-60
2021/01/30 02:01:59;;;;;;;;;;;23.90;42.50;;;;;;1568668;74;744;-58
2021/01/30 02:04:02;;;;;;;;;;;23.90;42.50;;;;;;1568110;74;758;-60
2021/01/30 02:06:04;;;;;;;;;;;23.80;42.40;;;;;;1556627;74;1127;-60
2021/01/30 02:08:06;;;;;;;;;;;23.90;42.40;;;;;;1551811;75;1189;-59
2021/01/30 02:10:10;;;;;;;;;;;23.80;42.30;;;;;;1552909;75;706;-59
2021/01/30 02:12:12;;;;;;;;;;;23.80;42.20;;;;;;1552770;74;1084;-59
2021/01/30 02:14:14;;;;;;;;;;;23.80;42.20;;;;;;1550452;76;738;-60
2021/01/30 02:16:18;;;;;;;;;;;23.80;42.20;;;;;;1551384;75;728;-59
2021/01/30 02:18:27;;;;;;;;;;;23.80;42.10;;;;;;1548291;76;1939;-60
2021/01/30 02:20:40;;;;;;;;;;;23.70;42.20;;;;;;1550032;75;697;-59
2021/01/30 02:22:44;;;;;;;;;;;23.80;42.20;;;;;;1552761;75;760;-59
2021/01/30 02:25:04;;;;;;;;;;;23.80;42.10;;;;;;1544405;75;1516;-59
2021/01/30 02:27:07;;;;;;;;;;;23.80;42.10;;;;;;1544873;75;838;-59
2021/01/30 02:29:20;;;;;;;;;;;23.80;42.20;;;;;;1545135;75;1134;-58
2021/01/30 02:31:23;;;;;;;;;;;23.70;42.30;;;;;;1552841;75;743;-58
2021/01/30 02:33:36;;;;;;;;;;;23.70;42.30;;;;;;1545111;75;1674;-59
2021/01/30 02:35:56;;;;;;;;;;;23.70;42.30;;;;;;1552529;75;611;-59
2021/01/30 02:38:02;;;;;;;;;;;23.80;42.30;;;;;;1553097;75;1206;-60
2021/01/30 02:40:05;;;;;;;;;;;23.70;42.20;;;;;;1548736;76;1948;-59
2021/01/30 02:42:09;;;;;;;;;;;23.70;42.30;;;;;;1550253;75;718;-58
2021/01/30 02:44:11;;;;;;;;;;;23.80;42.20;;;;;;1550484;76;721;-60
2021/01/30 02:46:19;;;;;;;;;;;23.80;42.20;;;;;;1552559;75;781;-60
2021/01/30 02:48:22;;;;;;;;;;;23.70;42.10;;;;;;1552385;75;1603;-60
2021/01/30 02:50:26;;;;;;;;;;;23.70;42.10;;;;;;1548304;75;730;-58
2021/01/30 02:52:28;;;;;;;;;;;23.70;42.10;;;;;;1551408;75;1941;-58
2021/01/30 02:54:31;;;;;;;;;;;23.70;42.10;;;;;;1550690;76;741;-60
2021/01/30 02:56:33;;;;;;;;;;;23.80;42.10;;;;;;1552460;75;794;-59
2021/01/30 02:58:36;;;;;;;;;;;23.80;42.10;;;;;;1549413;75;1939;-59
2021/01/30 03:00:38;;;;;;;;;;;23.70;42.10;;;;;;1549179;75;723;-59
2021/01/30 03:02:40;;;;;;;;;;;23.70;42.20;;;;;;1552241;75;762;-59
2021/01/30 03:04:42;;;;;;;;;;;23.70;42.10;;;;;;1552534;75;729;-58
2021/01/30 03:06:46;;;;;;;;;;;23.70;42.20;;;;;;1538346;76;1118;-60
2021/01/30 03:08:52;;;;;;;;;;;23.70;42.20;;;;;;1552271;75;1208;-60
2021/01/30 03:10:56;;;;;;;;;;;23.70;42.10;;;;;;1551706;76;1705;-59
2021/01/30 03:12:59;;;;;;;;;;;23.70;42.10;;;;;;1549834;76;1775;-60
2021/01/30 03:15:03;;;;;;;;;;;23.70;42.30;;;;;;1552606;76;765;-60
2021/01/30 03:17:04;;;;;;;;;;;23.70;42.30;;;;;;1552577;75;1178;-58
2021/01/30 03:19:09;;;;;;;;;;;23.70;42.30;;;;;;1552616;75;1941;-59
2021/01/30 03:21:11;;;;;;;;;;;23.80;42.30;;;;;;1550628;75;842;-59
2021/01/30 03:23:13;;;;;;;;;;;23.80;42.30;;;;;;1548092;75;570;-59
2021/01/30 03:25:22;;;;;;;;;;;23.80;42.40;;;;;;1552985;75;691;-59
2021/01/30 03:27:25;;;;;;;;;;;23.70;42.40;;;;;;1552547;75;1176;-59
2021/01/30 03:29:27;;;;;;;;;;;23.70;42.40;;;;;;1552262;75;1407;-59
2021/01/30 03:31:29;;;;;;;;;;;23.80;42.40;;;;;;1554553;75;554;-59
2021/01/30 03:33:31;;;;;;;;;;;23.80;42.50;;;;;;1553127;75;593;-60
2021/01/30 03:35:33;;;;;;;;;;;23.80;42.60;;;;;;1554717;76;733;-59
2021/01/30 03:37:35;;;;;;;;;;;23.80;42.50;;;;;;1556530;75;1204;-59
2021/01/30 03:39:37;;;;;;;;;;;23.80;42.60;;;;;;1550033;75;1932;-59
2021/01/30 03:41:40;;;;;;;;;;;23.80;42.60;;;;;;1533235;76;620;-60
2021/01/30 03:43:42;;;;;;;;;;;23.80;42.60;;;;;;1552666;75;756;-59
2021/01/30 03:45:44;;;;;;;;;;;23.80;42.60;;;;;;1553831;75;705;-59
2021/01/30 03:47:46;;;;;;;;;;;23.70;42.60;;;;;;1552955;75;1148;-60
2021/01/30 03:49:47;;;;;;;;;;;23.80;42.80;;;;;;1552047;75;1076;-59
2021/01/30 03:51:49;;;;;;;;;;;23.80;42.90;;;;;;1551978;75;665;-60
2021/01/30 03:53:51;;;;;;;;;;;23.70;43.00;;;;;;1552061;75;719;-58
2021/01/30 03:55:53;;;;;;;;;;;23.70;43.20;;;;;;1552279;75;754;-60
2021/01/30 03:57:55;;;;;;;;;;;23.60;43.30;;;;;;1549071;75;1134;-59
2021/01/30 03:59:57;;;;;;;;;;;23.60;43.40;;;;;;1550247;75;1925;-60
2021/01/30 04:01:59;;;;;;;;;;;23.60;43.60;;;;;;1552790;75;716;-59
2021/01/30 04:04:00;;;;;;;;;;;23.60;43.50;;;;;;1552887;75;695;-59
2021/01/30 04:06:02;;;;;;;;;;;23.50;43.90;;;;;;1556805;75;1101;-59
2021/01/30 04:08:05;;;;;;;;;;;23.50;43.80;;;;;;1566445;74;1192;-60
2021/01/30 04:10:07;;;;;;;;;;;23.50;43.90;;;;;;1570824;74;685;-60
2021/01/30 04:12:08;;;;;;;;;;;23.40;44.10;;;;;;1568125;75;750;-59
2021/01/30 04:14:10;;;;;;;;;;;23.40;44.20;;;;;;1570932;74;707;-58
2021/01/30 04:16:12;;;;;;;;;;;23.50;44.20;;;;;;1568338;74;729;-59
2021/01/30 04:18:14;;;;;;;;;;;23.50;44.30;;;;;;1563135;74;1118;-60
2021/01/30 04:20:16;;;;;;;;;;;23.40;44.20;;;;;;1568071;75;1938;-60
2021/01/30 04:22:18;;;;;;;;;;;23.40;44.30;;;;;;1568849;74;723;-59
2021/01/30 04:24:20;;;;;;;;;;;23.40;44.50;;;;;;1569321;74;796;-59
2021/01/30 04:26:22;;;;;;;;;;;23.40;44.60;;;;;;1568099;74;716;-59
2021/01/30 04:28:24;;;;;;;;;;;23.40;44.40;;;;;;1566778;74;1182;-59
2021/01/30 04:30:26;;;;;;;;;;;23.40;44.30;;;;;;1570835;75;696;-59
2021/01/30 04:32:28;;;;;;;;;;;23.50;44.30;;;;;;1568680;74;761;-58
2021/01/30 04:34:30;;;;;;;;;;;23.50;44.30;;;;;;1570278;74;746;-60
2021/01/30 04:36:32;;;;;;;;;;;23.40;44.00;;;;;;1564791;74;781;-58
2021/01/30 04:38:34;;;;;;;;;;;23.40;44.00;;;;;;1569746;74;1165;-59
2021/01/30 04:40:39;;;;;;;;;;;23.40;43.90;;;;;;1568611;74;1966;-60
2021/01/30 04:42:49;;;;;;;;;;;23.40;43.90;;;;;;1569258;74;706;-59
2021/01/30 04:44:55;;;;;;;;;;;23.40;43.80;;;;;;1561525;74;1818;-59
2021/01/30 04:47:02;;;;;;;;;;;23.40;43.80;;;;;;1568059;74;726;-59
2021/01/30 04:49:05;;;;;;;;;;;23.40;43.80;;;;;;1567759;74;1805;-59
2021/01/30 04:51:08;;;;;;;;;;;23.40;43.80;;;;;;1568117;75;1849;-60
2021/01/30 04:53:14;;;;;;;;;;;23.40;44.10;;;;;;1572774;74;754;-57
2021/01/30 04:55:27;;;;;;;;;;;23.40;44.10;;;;;;1567924;74;713;-57
2021/01/30 04:57:47;;;;;;;;;;;23.40;44.10;;;;;;1569394;74;1101;-59
2021/01/30 04:59:53;;;;;;;;;;;23.40;44.10;;;;;;1568056;74;1926;-58
2021/01/30 05:02:02;;;;;;;;;;;23.40;44.00;;;;;;1565888;74;701;-59
2021/01/30 05:04:12;;;;;;;;;;;23.40;44.20;;;;;;1565098;74;691;-60
2021/01/30 05:06:32;;;;;;;;;;;23.40;44.20;;;;;;1564681;74;741;-60
2021/01/30 05:08:45;;;;;;;;;;;23.40;44.20;;;;;;1568110;74;1200;-58
2021/01/30 05:10:48;;;;;;;;;;;23.40;44.20;;;;;;1568116;74;733;-58
2021/01/30 05:12:54;;;;;;;;;;;23.40;44.00;;;;;;1565473;74;1805;-58
2021/01/30 05:15:03;;;;;;;;;;;23.40;44.00;;;;;;1564444;74;714;-59
2021/01/30 05:17:18;;;;;;;;;;;23.40;43.90;;;;;;1569312;74;685;-60
2021/01/30 05:19:20;;;;;;;;;;;23.40;44.00;;;;;;1567696;74;1955;-59
2021/01/30 05:21:24;;;;;;;;;;;23.40;43.90;;;;;;1568919;74;787;-60
2021/01/30 05:23:26;;;;;;;;;;;23.50;44.00;;;;;;1566796;74;1729;-60
2021/01/30 05:25:28;;;;;;;;;;;23.40;43.80;;;;;;1566096;74;711;-59
2021/01/30 05:27:34;;;;;;;;;;;23.40;43.80;;;;;;1570150;74;1182;-59
2021/01/30 05:29:43;;;;;;;;;;;23.40;43.70;;;;;;1565924;74;1081;-59
2021/01/30 05:32:05;;;;;;;;;;;23.50;43.80;;;;;;1567920;74;659;-58
2021/01/30 05:34:09;;;;;;;;;;;23.40;43.70;;;;;;1560381;75;692;-58
2021/01/30 05:36:12;;;;;;;;;;;23.50;43.90;;;;;;1567721;74;705;-59
2021/01/30 05:38:32;;;;;;;;;;;23.50;43.80;;;;;;1568464;74;1144;-58
2021/01/30 05:40:36;;;;;;;;;;;23.40;43.70;;;;;;1567325;75;1931;-59
2021/01/30 05:42:57;;;;;;;;;;;23.50;43.80;;;;;;1566274;75;652;-60
2021/01/30 05:45:07;;;;;;;;;;;23.50;43.80;;;;;;1542619;75;1049;-58
2021/01/30 05:47:10;;;;;;;;;;;23.40;43.70;;;;;;1540982;75;1779;-59
2021/01/30 05:49:16;;;;;;;;;;;23.50;43.90;;;;;;1540803;75;1165;-60
2021/01/30 05:51:31;;;;;;;;;;;23.50;43.80;;;;;;1560190;74;858;-58
2021/01/30 05:53:33;;;;;;;;;;;23.50;43.80;;;;;;1568774;74;709;-60
2021/01/30 05:55:36;;;;;;;;;;;23.40;43.60;;;;;;1568360;74;713;-60
2021/01/30 05:57:38;;;;;;;;;;;23.40;43.70;;;;;;1568690;74;1165;-59
2021/01/30 05:59:41;;;;;;;;;;;23.40;43.70;;;;;;1558546;75;1929;-59
2021/01/30 06:01:43;;;;;;;;;;;23.50;43.80;;;;;;1555031;74;1557;-59
2021/01/30 06:03:55;;;;;;;;;;;23.40;43.70;;;;;;1568110;74;784;-59
2021/01/30 06:05:58;;;;;;;;;;;23.50;43.80;;;;;;1566980;74;737;-60
2021/01/30 06:08:02;;;;;;;;;;;23.40;43.60;;;;;;1556286;74;1611;-59
2021/01/30 06:10:21;;;;;;;;;;;23.40;43.70;;;;;;1536841;75;1180;-58
2021/01/30 06:12:29;;;;;;;;;;;23.40;43.70;;;;;;1542122;75;1176;-60
2021/01/30 06:14:33;;;;;;;;;;;23.50;43.80;;;;;;1554788;75;680;-59
2021/01/30 06:16:48;;;;;;;;;;;23.50;43.90;;;;;;1551647;75;691;-59
2021/01/30 06:18:50;;;;;;;;;;;23.50;43.90;;;;;;1550840;75;1149;-59
2021/01/30 06:21:02;;;;;;;;;;;23.50;43.80;;;;;;1545914;76;1932;-59
2021/01/30 06:23:11;;;;;;;;;;;23.50;43.70;;;;;;1551861;75;930;-59
2021/01/30 06:25:23;;;;;;;;;;;23.50;43.60;;;;;;1550592;75;826;-59
2021/01/30 06:27:26;;;;;;;;;;;23.50;43.90;;;;;;1544907;75;1156;-60
2021/01/30 06:29:43;;;;;;;;;;;23.50;43.80;;;;;;1543824;75;698;-59
2021/01/30 06:31:45;;;;;;;;;;;23.50;43.90;;;;;;1550834;75;747;-59
2021/01/30 06:33:48;;;;;;;;;;;23.50;43.80;;;;;;1552926;75;695;-59
2021/01/30 06:35:50;;;;;;;;;;;23.50;43.70;;;;;;1551816;75;970;-59
2021/01/30 06:37:57;;;;;;;;;;;23.50;43.70;;;;;;1540650;75;1215;-61
2021/01/30 06:40:03;;;;;;;;;;;23.60;43.60;;;;;;1551629;75;1937;-58
2021/01/30 06:42:19;;;;;;;;;;;23.50;43.90;;;;;;1552724;75;686;-59
2021/01/30 06:44:22;;;;;;;;;;;23.50;44.00;;;;;;1551229;75;1775;-58
2021/01/30 06:46:24;;;;;;;;;;;23.50;44.00;;;;;;1550971;75;746;-60
2021/01/30 06:48:27;;;;;;;;;;;23.60;43.90;;;;;;1548539;75;1202;-58
2021/01/30 06:50:34;;;;;;;;;;;23.60;44.10;;;;;;1551713;75;719;-59
2021/01/30 06:52:36;;;;;;;;;;;23.60;44.10;;;;;;1551551;75;678;-60
2021/01/30 06:54:38;;;;;;;;;;;23.60;44.00;;;;;;1548172;76;652;-57
2021/01/30 06:56:40;;;;;;;;;;;23.60;43.90;;;;;;1547744;75;633;-58
2021/01/30 06:58:42;;;;;;;;;;;23.60;44.00;;;;;;1551537;75;1125;-58
2021/01/30 07:00:44;;;;;;;;;;;23.60;44.10;;;;;;1552318;75;1928;-61
2021/01/30 07:02:49;;;;;;;;;;;23.60;44.10;;;;;;1552062;75;686;-60
2021/01/30 07:05:02;;;;;;;;;;;23.60;44.00;;;;;;1547745;75;864;-58
2021/01/30 07:07:18;;;;;;;;;;;23.60;44.20;;;;;;1549228;75;709;-58
2021/01/30 07:09:24;;;;;;;;;;;23.60;44.20;;;;;;1548961;74;1078;-59
2021/01/30 07:11:40;;;;;;;;;;;23.60;44.00;;;;;;1550862;75;705;-59
2021/01/30 07:13:43;;;;;;;;;;;23.60;44.10;;;;;;1549759;75;1739;-58
2021/01/30 07:15:47;;;;;;;;;;;23.60;43.90;;;;;;1550354;75;1624;-59
2021/01/30 07:17:50;;;;;;;;;;;23.60;43.60;;;;;;1551058;75;1964;-59
2021/01/30 07:20:00;;;;;;;;;;;23.70;43.40;;;;;;1551083;75;1919;-58
2021/01/30 07:22:09;;;;;;;;;;;23.70;42.80;;;;;;1508424;75;1033;-58
2021/01/30 07:24:13;;;;;;;;;;;23.80;42.50;;;;;;1553143;75;718;-60
2021/01/30 07:26:16;;;;;;;;;;;23.90;42.50;;;;;;1549903;75;677;-59
2021/01/30 07:28:19;;;;;;;;;;;23.90;42.20;;;;;;1552453;75;1158;-58
2021/01/30 07:30:23;;;;;;;;;;;23.90;41.80;;;;;;1551374;75;1917;-59
2021/01/30 07:32:38;;;;;;;;;;;23.90;41.20;;;;;;1552173;75;1699;-59
2021/01/30 07:34:44;;;;;;;;;;;23.80;40.90;;;;;;1548182;75;715;-59
2021/01/30 07:36:53;;;;;;;;;;;23.90;40.80;;;;;;1551465;75;697;-59
2021/01/30 07:38:57;;;;;;;;;;;23.80;40.50;;;;;;1551088;75;1122;-59
2021/01/30 07:41:06;;;;;;;;;;;23.80;40.50;;;;;;1551111;75;1966;-60
2021/01/30 07:43:10;;;;;;;;;;;23.70;40.20;;;;;;1551621;75;1536;-59
2021/01/30 07:45:19;;;;;;;;;;;23.70;39.90;;;;;;1544772;75;1672;-61
2021/01/30 07:47:41;;;;;;;;;;;23.70;39.40;;;;;;1541679;75;1192;-59
2021/01/30 07:49:44;;;;;;;;;;;23.70;39.70;;;;;;1550543;75;706;-59
2021/01/30 07:51:48;;;;;;;;;;;23.60;39.30;;;;;;1551492;75;732;-59
2021/01/30 07:53:50;;;;;;;;;;;23.60;39.30;;;;;;1557141;75;770;-59
2021/01/30 07:55:59;;;;;;;;;;;23.60;38.90;;;;;;1551559;75;717;-59
2021/01/30 07:58:07;;;;;;;;;;;23.50;38.80;;;;;;1546708;75;1553;-67
2021/01/30 08:00:11;;;;;;;;;;;23.50;38.80;;;;;;1546389;75;1923;-66
2021/01/30 08:02:31;;;;;;;;;;;23.50;38.60;;;;;;1554231;75;790;-67
2021/01/30 08:04:53;;;;;;;;;;;23.50;38.30;;;;;;1550375;75;722;-66
2021/01/30 08:06:59;;;;;;;;;;;23.50;38.10;;;;;;1554451;75;1893;-65
2021/01/30 08:09:19;;;;;;;;;;;23.50;38.30;;;;;;1553079;75;1122;-66
2021/01/30 08:11:24;;;;;;;;;;;23.50;38.30;;;;;;1553353;75;799;-64
2021/01/30 08:13:27;;;;;;;;;;;23.40;38.00;;;;;;1543144;75;770;-66
2021/01/30 08:15:31;;;;;;;;;;;23.40;37.60;;;;;;1542393;75;755;-66
2021/01/30 08:17:34;;;;;;;;;;;23.30;37.70;;;;;;1548612;75;1584;-63
2021/01/30 08:19:41;;;;;;;;;;;23.40;37.60;;;;;;1551637;75;714;-66
2021/01/30 08:21:44;;;;;;;;;;;23.30;37.40;;;;;;1548723;75;1930;-65
2021/01/30 08:23:57;;;;;;;;;;;23.30;37.40;;;;;;1552722;75;1021;-66
2021/01/30 08:26:03;;;;;;;;;;;23.30;37.10;;;;;;1542176;75;1805;-66
2021/01/30 08:28:07;;;;;;;;;;;23.30;37.30;;;;;;1560681;75;1498;-67
2021/01/30 08:30:10;;;;;;;;;;;23.30;37.20;;;;;;1559716;75;1797;-66
2021/01/30 08:32:26;;;;;;;;;;;23.30;37.20;;;;;;1550367;75;1998;-66
2021/01/30 08:34:29;;;;;;;;;;;23.30;37.30;;;;;;1551678;75;687;-66
2021/01/30 08:36:32;;;;;;;;;;;23.20;37.20;;;;;;1551411;75;686;-67
2021/01/30 08:38:34;;;;;;;;;;;23.20;36.70;;;;;;1542346;75;1141;-66
2021/01/30 08:40:52;;;;;;;;;;;23.20;36.80;;;;;;1542867;75;1936;-68
2021/01/30 08:42:55;;;;;;;;;;;23.20;36.90;;;;;;1551880;75;953;-66
2021/01/30 08:44:58;;;;;;;;;;;23.20;36.70;;;;;;1553515;75;1000;-65
2021/01/30 08:47:16;;;;;;;;;;;23.20;36.50;;;;;;1546351;76;723;-65
2021/01/30 08:49:20;;;;;;;;;;;23.10;36.70;;;;;;1541584;75;1194;-65
2021/01/30 08:51:22;;;;;;;;;;;23.10;36.60;;;;;;1549803;75;661;-67
2021/01/30 08:53:26;;;;;;;;;;;23.20;36.50;;;;;;1565145;76;684;-66
2021/01/30 08:55:48;;;;;;;;;;;23.20;36.50;;;;;;1555393;75;671;-65
2021/01/30 08:57:49;;;;;;;;;;;23.20;36.20;;;;;;1541724;75;1140;-66
2021/01/30 08:59:52;;;;;;;;;;;23.10;36.40;;;;;;1539353;75;747;-69
2021/01/30 09:01:54;;;;;;;;;;;23.20;36.30;;;;;;1545392;75;1927;-68
2021/01/30 09:04:00;;;;;;;;;;;23.20;36.40;;;;;;1553603;75;796;-65
2021/01/30 09:06:02;;;;;;;;;;;23.10;36.40;;;;;;1553278;75;809;-68
2021/01/30 09:08:17;;;;;;;;;;;23.10;35.90;;;;;;1542053;75;1144;-66
2021/01/30 09:10:25;;;;;;;;;;;23.10;36.10;;;;;;1552570;75;1000;-68
2021/01/30 09:12:45;;;;;;;;;;;23.10;36.00;;;;;;1550084;75;790;-65
2021/01/30 09:14:46;;;;;;;;;;;23.10;36.00;;;;;;1552931;75;949;-64
2021/01/30 09:16:53;;;;;;;;;;;23.10;36.00;;;;;;1550722;75;737;-64
2021/01/30 09:18:55;;;;;;;;;;;23.00;35.80;;;;;;1539943;75;1194;-67
2021/01/30 09:20:58;;;;;;;;;;;23.10;36.00;;;;;;1541046;76;1927;-68
2021/01/30 09:23:07;;;;;;;;;;;23.00;35.90;;;;;;1561935;75;737;-68
2021/01/30 09:25:26;;;;;;;;;;;23.10;36.00;;;;;;1553093;75;1784;-70
2021/01/30 09:27:29;;;;;;;;;;;23.10;35.80;;;;;;1546632;75;1155;-59
2021/01/30 09:29:35;;;;;;;;;;;23.00;35.70;;;;;;1552345;76;1005;-60
2021/01/30 09:31:37;;;;;;;;;;;23.00;35.70;;;;;;1541901;75;1782;-60
2021/01/30 09:33:43;;;;;;;;;;;23.00;35.60;;;;;;1533980;75;690;-60
2021/01/30 09:35:45;;;;;;;;;;;23.00;35.70;;;;;;1525353;75;1488;-61
2021/01/30 09:37:47;;;;;;;;;;;23.00;35.70;;;;;;1532899;75;1124;-61
2021/01/30 09:39:51;;;;;;;;;;;23.00;35.60;;;;;;1531680;75;724;-61
2021/01/30 09:41:54;;;;;;;;;;;23.00;35.20;;;;;;1540772;75;1934;-61
2021/01/30 09:44:10;;;;;;;;;;;23.00;35.20;;;;;;1539764;75;1595;-60
2021/01/30 09:46:13;;;;;;;;;;;23.00;35.40;;;;;;1552176;75;839;-61
2021/01/30 09:48:15;;;;;;;;;;;23.00;35.20;;;;;;1553344;75;1152;-60
2021/01/30 09:50:25;;;;;;;;;;;23.00;35.50;;;;;;1553649;75;728;-61
2021/01/30 09:52:26;;;;;;;;;;;23.00;35.50;;;;;;1553388;75;785;-61
2021/01/30 09:54:29;;;;;;;;;;;23.00;35.50;;;;;;1543196;75;769;-62
2021/01/30 09:56:32;;;;;;;;;;;23.00;35.40;;;;;;1543466;75;704;-60
2021/01/30 09:58:34;;;;;;;;;;;23.00;35.50;;;;;;1552541;75;1777;-61
2021/01/30 10:00:37;;;;;;;;;;;23.10;35.30;;;;;;1551741;75;1943;-61
2021/01/30 10:02:39;;;;;;;;;;;23.00;35.10;;;;;;1552086;75;715;-60
2021/01/30 10:04:41;;;;;;;;;;;23.10;35.20;;;;;;1545052;75;709;-60
2021/01/30 10:06:43;;;;;;;;;;;23.10;35.40;;;;;;1542185;75;718;-60
2021/01/30 10:08:45;;;;;;;;;;;23.10;35.40;;;;;;1558353;75;1157;-61
2021/01/30 10:10:47;;;;;;;;;;;23.20;35.20;;;;;;1567021;74;1063;-60
2021/01/30 10:12:49;;;;;;;;;;;23.20;35.20;;;;;;1563301;74;722;-61
2021/01/30 10:14:51;;;;;;;;;;;23.20;35.20;;;;;;1563969;74;703;-60
2021/01/30 10:16:55;;;;;;;;;;;23.10;35.20;;;;;;1572489;74;702;-59
2021/01/30 10:18:58;;;;;;;;;;;23.20;35.30;;;;;;1566981;74;1926;-59
2021/01/30 10:21:01;;;;;;;;;;;23.30;35.10;;;;;;1575272;75;1973;-59
2021/01/30 10:23:03;;;;;;;;;;;23.20;35.10;;;;;;1566203;74;751;-60
2021/01/30 10:25:06;;;;;;;;;;;23.20;34.90;;;;;;1559747;74;749;-59
2021/01/30 10:27:12;;;;;;;;;;;23.30;35.00;;;;;;1566598;74;688;-59
2021/01/30 10:29:15;;;;;;;;;;;23.30;35.00;;;;;;1568047;74;1085;-59
2021/01/30 10:31:18;;;;;;;;;;;23.20;34.80;;;;;;1569759;74;797;-58
2021/01/30 10:33:20;;;;;;;;;;;23.30;34.70;;;;;;1564188;74;720;-59
2021/01/30 10:35:42;;;;;;;;;;;23.40;34.70;;;;;;1569029;74;721;-59
2021/01/30 10:37:44;;;;;;;;;;;23.30;34.60;;;;;;1561214;74;2104;-59
2021/01/30 10:39:53;;;;;;;;;;;23.30;34.40;;;;;;1568503;74;787;-59
2021/01/30 10:41:57;;;;;;;;;;;23.30;34.40;;;;;;1569190;74;1921;-59
2021/01/30 10:43:59;;;;;;;;;;;23.40;34.30;;;;;;1567674;74;723;-59
2021/01/30 10:46:08;;;;;;;;;;;23.30;34.30;;;;;;1568292;74;726;-59
2021/01/30 10:48:10;;;;;;;;;;;23.40;34.10;;;;;;1566635;74;1195;-60
2021/01/30 10:50:16;;;;;;;;;;;23.40;34.20;;;;;;1564783;74;800;-58
2021/01/30 10:52:24;;;;;;;;;;;23.30;34.20;;;;;;1555492;74;646;-59
2021/01/30 10:54:30;;;;;;;;;;;23.40;34.30;;;;;;1564737;74;722;-59
2021/01/30 10:56:31;;;;;;;;;;;23.40;34.20;;;;;;1566971;74;792;-60
2021/01/30 10:58:33;;;;;;;;;;;23.40;34.20;;;;;;1570966;74;1188;-59
2021/01/30 11:00:35;;;;;;;;;;;23.30;33.90;;;;;;1565840;74;789;-58
2021/01/30 11:02:44;;;;;;;;;;;23.30;33.40;;;;;;1561089;74;1948;-58
2021/01/30 11:04:48;;;;;;;;;;;23.30;34.40;;;;;;1554062;74;710;-59
2021/01/30 11:06:49;;;;;;;;;;;23.30;34.40;;;;;;1566472;75;1785;-59
2021/01/30 11:08:51;;;;;;;;;;;23.20;36.20;;;;;;1567026;74;1125;-59
2021/01/30 11:10:55;;;;;;;;;;;23.20;34.60;;;;;;1532540;75;1061;-59
2021/01/30 11:13:07;;;;;;;;;;;23.00;33.00;;;;;;1531755;76;1739;-60
2021/01/30 11:15:10;;;;;;;;;;;23.10;34.10;;;;;;1528627;76;775;-59
2021/01/30 11:17:25;;;;;;;;;;;23.10;34.40;;;;;;1529591;76;714;-57
2021/01/30 11:19:29;;;;;;;;;;;23.10;35.70;;;;;;1529526;76;703;-57
2021/01/30 11:21:32;;;;;;;;;;;23.20;35.20;;;;;;1493124;78;1947;-59
2021/01/30 11:23:38;;;;;;;;;;;23.10;35.70;;;;;;1534564;76;1711;-58
2021/01/30 11:25:41;;;;;;;;;;;23.20;35.70;;;;;;1541984;76;674;-58
2021/01/30 11:27:47;;;;;;;;;;;23.10;36.00;;;;;;1533528;76;1120;-59
2021/01/30 11:29:47;;;;;;;;;;;23.10;35.80;;;;;;1525877;77;1535;-58
2021/01/30 11:31:49;;;;;;;;;;;23.20;35.60;;;;;;1535375;76;736;-59
2021/01/30 11:33:54;;;;;;;;;;;23.20;35.50;;;;;;1532291;76;754;-58
2021/01/30 11:35:56;;;;;;;;;;;23.20;35.40;;;;;;1528730;77;734;-59
2021/01/30 11:37:58;;;;;;;;;;;23.10;35.60;;;;;;1529006;76;1250;-57
2021/01/30 11:40:05;;;;;;;;;;;23.10;36.00;;;;;;1531855;76;706;-60
2021/01/30 11:42:06;;;;;;;;;;;23.10;35.90;;;;;;1529658;76;1941;-57
2021/01/30 11:44:08;;;;;;;;;;;23.20;35.90;;;;;;1532342;76;738;-59
2021/01/30 11:46:10;;;;;;;;;;;23.20;35.60;;;;;;1530398;76;913;-57
2021/01/30 11:48:12;;;;;;;;;;;23.10;35.70;;;;;;1525227;76;1160;-56
2021/01/30 11:50:14;;;;;;;;;;;23.10;35.90;;;;;;1533292;76;929;-56
2021/01/30 11:52:18;;;;;;;;;;;23.20;36.50;;;;;;1533348;76;757;-57
2021/01/30 11:54:19;;;;;;;;;;;23.10;36.80;;;;;;1531511;76;1696;-59
2021/01/30 11:56:22;;;;;;;;;;;23.10;37.40;;;;;;1533334;76;705;-57
2021/01/30 11:58:23;;;;;;;;;;;23.10;37.60;;;;;;1528873;76;1155;-58
2021/01/30 12:00:25;;;;;;;;;;;23.10;37.30;;;;;;1531446;76;836;-58
2021/01/30 12:02:29;;;;;;;;;;;23.20;37.90;;;;;;1533417;76;1948;-58
2021/01/30 12:04:30;;;;;;;;;;;23.10;37.80;;;;;;1532970;76;779;-58
2021/01/30 12:06:32;;;;;;;;;;;23.20;38.10;;;;;;1515136;76;772;-57
2021/01/30 12:08:34;;;;;;;;;;;23.10;38.40;;;;;;1518738;77;1136;-59
2021/01/30 12:10:36;;;;;;;;;;;23.10;38.50;;;;;;1537832;75;1096;-58
2021/01/30 12:12:38;;;;;;;;;;;23.10;38.60;;;;;;1560382;74;704;-57
2021/01/30 12:14:40;;;;;;;;;;;23.10;38.70;;;;;;1557103;74;1073;-58
2021/01/30 12:16:42;;;;;;;;;;;23.10;38.80;;;;;;1561681;74;723;-59
2021/01/30 12:18:44;;;;;;;;;;;23.20;38.90;;;;;;1560607;75;1164;-59
2021/01/30 12:20:46;;;;;;;;;;;23.10;38.90;;;;;;1560719;74;770;-59
2021/01/30 12:22:48;;;;;;;;;;;23.10;38.90;;;;;;1554594;75;1950;-59
2021/01/30 12:24:50;;;;;;;;;;;23.20;38.80;;;;;;1561041;74;712;-59